Historyczne dane pomiarowe

Dodano dane terminowe – wersja testowa.

Dane z okresu 1951-2019

Wersja bazy: 1.34 [2019-03-16, lista zmian], aktualizacja planowana na 2019-04-15

Dane meteo z obszaru Polski uzyskane na podstawie danych udostępnionych przez Instytut Meteorologii i Gospodarki Wodnej – Państwowy Instytut Badawczy.

 

Wybierz Datę:    

       

TemperaturaWilgotnośćWiatrCiśnienieOpadyŚniegCzas trwania zjawisk
 Stacja t tx tn tng RH VA  wxwx mslp ppp RRR   cm mm wxwxwxwxwxwxwx
2020-01-31 6.8 11.0 2.7 0.3 74.5 7.4- 2.6--1006.5 970.9 1.0 1.0 0.0x- 0.0-------
2020-01-30 3.8 5.8 0.4 -1.3 69.3 5.5- 3.4--1012.5 976.3 0.4 0.0 0.4x- 4.2-------
2020-01-29 2.7 5.4 0.6 -1.6 69.0 5.1- 2.9--1005.0 969.0 0.0 0.0 0.0x- 2.9-------
2020-01-28 0.5 5.1 -4.2 -5.8 84.5 5.3- 1.6--1006.3 969.9 0.2 0.1 0.1x- 0.9-------
2020-01-27 -0.7 7.6 -5.2 -6.7 82.4 4.7- 0.6--1017.8 980.8 0.0 0.0 0.0x- 6.7-------
2020-01-26 -2.9 3.0 -7.2 -8.2 82.3 4.0- 0.9--1022.8 985.3 0.0 0.0 0.0x- 7.3-------
2020-01-25 -2.8--- 84.3------- 0.0 0.0 0.0x---------
2020-01-24 -1.9 4.4 -6.3 -7.1 81.5 4.3- 1.4--1026.4 989.0 0.0 0.0 0.0x- 8.3-------
2020-01-23 1.0 4.4 -1.4 -3.8 76.8 5.0- 2.6--1033.8 996.4 0.0 0.0 0.0x- 5.6-------
2020-01-22 0.2 4.9 -4.9 -6.0 81.1 5.1- 2.3--1030.4 993.1 0.0 0.0 0.0x- 3.1-------
2020-01-21 -0.3 6.1 -5.3 -6.2 84.9 5.0- 1.4--1041.81004.1 0.0 0.0 0.0x- 7.9-------
2020-01-20 1.5 2.1 0.7 0.1 91.0 6.2- 1.9--1044.71007.0 0.0 0.0 0.0x- 0.0-------
2020-01-19 0.4 1.8 -1.8 -3.2 97.3 6.2- 0.5--1031.1 993.8 0.5 0.0 0.5x- 0.0-------
2020-01-18 2.0 7.2 -2.3 -4.2 79.0 5.5- 1.4--1025.2 988.3 0.0 0.0 0.0x- 6.1-------
2020-01-17 1.4 8.2 -4.6 -6.0 81.3 5.4- 1.9--1028.9 991.8 0.0 0.0 0.0x- 2.4-------
2020-01-16 -0.5 2.8 -3.9 -5.4 88.6 5.2- 0.6--1031.9 994.4 0.0 0.0 0.0x- 1.8-------
2020-01-15 -0.3 3.6 -3.7 -5.2 79.9 4.8- 2.1--1026.5 989.2 0.0 0.0 0.0x- 7.8-------
2020-01-14 -1.0 3.3 -4.5 -5.6 85.8 4.9- 1.8--1024.4 987.1 0.0 0.0 0.0x- 7.0-------
2020-01-13 0.5 5.0 -1.1 -2.9 80.9 5.1- 1.1--1025.7 988.6 0.0 0.0 0.0x- 1.8-------
2020-01-12 2.1 7.3 -2.3 -4.3 81.5 5.7- 1.4--1028.4 991.4 0.0 0.0 0.0x- 7.8-------
2020-01-11 3.2 6.0 -0.3 -2.1 86.3 6.6- 2.9--1028.2 991.4 0.0 0.0 0.0x- 0.0-------
2020-01-10 0.6 2.9 -1.2 -2.8 82.6 5.3- 1.6--1021.3 984.3 0.1 0.0 0.1x- 0.2-------
2020-01-09 0.7 2.3 -0.7 -2.7 90.3 5.8- 1.3--1025.6 988.5 1.6 1.6 0.0x- 0.0-------
2020-01-08 -0.4 4.9 -5.1 -6.3 76.4 4.5- 1.4--1030.4 993.0 1.1 0.0 1.1x- 6.2-------
2020-01-07 -4.1 1.5 -9.0-12.9 81.1 3.6- 1.0--1029.1 991.2 0.0 0.0 0.0x- 7.6-------
2020-01-06 -2.2 1.7 -4.5-10.1 80.9 4.2- 0.8--1032.9 995.2 0.0 0.0 0.0x- 1.2-------
2020-01-05 0.7 3.4 -0.2 -2.2 76.5 4.9- 3.6--1027.5 990.4 0.1 0.1 0.0x- 0.2-------
2020-01-04 2.6 5.6 -4.6 -5.9 79.9 5.9- 3.4--1018.7 982.1 2.8 0.3 2.5x- 0.0-------
2020-01-03 -3.6 1.1 -7.6 -8.8 83.9 3.9- 1.1--1026.0 988.3 0.1 0.0 0.1x- 7.4-------
2020-01-02 -2.4 2.7 -6.9 -7.8 83.1 4.2- 0.9--1031.8 994.1 0.0 0.0 0.0x- 5.3-------
2020-01-01 1.9 5.0 -1.5 -3.2 75.8 5.3- 3.1--1032.4 995.3 0.0 0.0 0.0x- 2.2-------
2019-12-31 3.3 6.4 -0.4 -3.9 70.4 5.5- 3.3--1025.6 988.9 0.0 0.0 0.0x- 3.2-------
2019-12-30 -1.3 2.6 -7.0 -9.0 77.1 4.3- 1.4--1035.5 997.8 0.0 0.0 0.0x- 2.7-------
2019-12-29 -2.1 -1.4 -2.4 -2.6 79.3 4.2- 1.6--1039.11001.2 0.0 0.0 0.0x- 0.0-------
2019-12-28 -0.3 1.3 -1.4 -2.1 86.4 5.2- 3.5--1032.0 994.6 0.7 0.7 0.0x- 0.0-------
2019-12-27 1.9 3.1 0.6 -0.1 88.5 6.2- 2.4--1023.1 986.2 3.3 1.3 2.0x- 0.0-------
2019-12-26 2.7 4.0 1.8 1.6 89.9 6.7- 2.5--1020.0 983.5 0.5 0.3 0.2x- 0.0-------
2019-12-25 3.5 5.5 2.2 1.6 89.1 7.0- 1.0--1011.6 975.5 6.0 2.3 3.7x- 0.0-------
2019-12-24 4.9 5.8 3.9 3.3 82.8 7.2- 3.3--1009.7 973.8 0.3 0.3 0.0x- 0.0-------
2019-12-23 4.3 6.9 2.9 2.8 94.3 7.9- 2.0-- 997.3 961.8 24.6 11.5 13.1x- 0.0-------
2019-12-22 9.2 11.4 6.5 4.3 80.9 9.4- 1.1-- 990.4 955.7 8.9 0.4 8.5x- 1.5-------
2019-12-21 11.7 14.1 8.9 7.0 67.8 9.2- 2.6-- 996.5 961.9 1.2 1.1 0.1x- 3.8-------
2019-12-20 11.9 15.1 5.2 1.6 60.6 8.3- 5.0--1008.6 973.6 0.0 0.0 0.0x- 6.6-------
2019-12-19 4.0 9.1 -0.7 -2.6 93.6 7.7- 0.6--1024.8 988.2 0.0 0.0 0.0x- 2.5-------
2019-12-18 7.9 15.7 3.9 1.0 82.5 8.6- 1.6--1019.9 984.0 0.0 0.0 0.0x- 6.1-------
2019-12-17 8.6 12.5 3.5 1.0 78.3 8.7- 2.8--1014.6 979.0 0.0 0.0 0.0x- 0.7-------
2019-12-16 5.3 8.0 1.9 -0.6 82.6 7.3- 1.4--1017.0 980.8 0.0 0.0 0.0x- 4.1-------
2019-12-15 7.0 10.7 2.4 0.5 62.1 6.2- 2.1--1009.7 974.0 0.0 0.0 0.0x- 2.9-------
2019-12-14 3.9 7.8 0.2 -1.5 80.0 6.5- 2.1-- 997.9 962.3 0.1 0.0 0.1x- 2.0-------
2019-12-13 5.2 7.3 0.9 -0.2 71.5 6.3- 3.4-- 994.7 959.3 0.0 0.0 0.0x- 0.7-------
2019-12-12 -1.2 4.6 -6.8 -7.7 86.6 5.0- 0.9--1009.1 972.4 0.0 0.0 0.0x- 4.7-------
2019-12-11 -0.3--- 77.8 4.6- 1.1--1020.3 983.3 0.0 0.0 0.0x- 1.5-------
2019-12-10 2.5 4.9 1.0 -1.2 82.4 6.1- 2.3--1018.7 982.2 0.4 0.4 0.0x- 0.0-------
2019-12-09 3.6 6.9 1.3 -1.0 81.3 6.4- 1.5--1008.2 972.2 0.3 0.0 0.3x- 2.0-------
2019-12-08 3.6 6.4 1.4 -1.0 77.9 6.2- 1.5--1013.4 977.2 0.0 0.0 0.0x- 5.2-------
2019-12-07 0.4 6.9 -4.3 -7.7 79.8 5.1- 2.3--1015.0 978.3 0.0 0.0 0.0x- 1.8-------
2019-12-06 -2.7 1.8 -5.7 -8.8 77.3 3.9- 2.0--1020.5 983.2 0.0 0.0 0.0x- 7.4-------
2019-12-05 -2.7 2.8 -5.8 -8.4 79.0 3.9- 1.4--1026.7 989.2 0.0 0.0 0.0x- 7.7-------
2019-12-04 -3.6 2.6 -8.4-12.5 84.3 4.0- 1.3--1030.0 992.2 0.0 0.0 0.0x- 5.0-------
2019-12-03 -0.7 1.7 -3.2 -8.9 87.5 5.1- 1.1--1026.2 988.9 0.7 0.7 0.0x- 0.1-------
2123.6 ms

 

Źródłem pochodzenia danych jest Instytut Meteorologii i Gospodarki Wodnej – Państwowy Instytut Badawczy. Dane Instytutu Meteorologii i Gospodarki Wodnej – Państwowego Instytutu Badawczego zostały przetworzone.

Dane źródłowe można odnaleźć na stronie https://dane.imgw.pl